Portada
METAR-TAF:

METAR-TAF

Aeroports :

Dharamsala, Índia

latitud: 32-09-54N, longitud: 76-15-48E, altitud: 770 m

METAR: manca

Hora: 13:44 (08:14 UTC)

Pronòstic

L'informe es va fer fa 9 hores i 14 minuts, a les 23:00 UTC
Pronòstic vàlid del 31 a les 00 UTC al 31 a les 09 UTC
Vent 4 kt del Est/Sud-Est
Visibilitat: 5000 m
Núvols disperses a una alçada de 3000 ft
Núvols disperses a una alçada de 8000 ft
boirina, plugim
Temporalment
l' 31 a les 05 UTC al 31 a les 09 UTC
Vent 10 kt del Sud-Oest amb ràfegues de 20 kt
Visibilitat: 3000 m
Núvols disperses a una alçada de 2500 ft
Escasses núvols a una alçada de 3000 ft, Cumulonimbus.
Cel ennuvolat a una alçada de 8000 ft
tempesta, pluja

TAF: VIGG 302300Z 3100/3109 11004KT 5000 BR DZ SCT030 SCT080 TEMPO 3105/3109 23010G20KT 3000 TSRA SCT025 FEW030CB BKN080

Observacions i pronòstics meteorològics de més de 4000 aeroports (METAR i TAF).

Les estacions disponibles són els punts grocs i vermells al mapa.

Posi el ratolí al punt desitjat per veure el nom de l'estació.

Feu clic per veure les observacions i els pronòstics meteorològics.

Per canviar el mapa: feu clic els botons verds amb una creu de color negre per apropar; al botó verd amb un guió per allunyar la imatge; o en les fletxes verdes per a mapes adjacents.


METAR-TAF: